createdAt,value
2016-09-15T16:14:07.027Z,86
2016-09-15T16:14:23.440Z,88
2016-09-15T16:14:39.583Z,79
2016-09-15T16:15:00.866Z,87
2016-09-15T16:15:17.479Z,89
2016-09-15T16:16:46.223Z,7
2016-09-15T16:17:02.377Z,38
2016-09-15T16:17:18.732Z,42
2016-09-15T16:17:35.326Z,42
2016-09-15T16:17:52.080Z,42
2016-09-15T16:18:08.683Z,15
2016-09-15T16:18:25.289Z,16
2016-09-15T16:18:41.675Z,19
2016-09-15T16:18:58.052Z,21
2016-09-15T16:19:14.451Z,21
2016-09-15T16:19:30.850Z,21
2016-09-15T16:19:47.461Z,21
2016-09-15T16:20:03.867Z,18
2016-09-15T16:22:45.936Z,331
2016-09-15T16:23:02.693Z,331
2016-09-15T16:23:19.217Z,241
2016-09-15T16:23:35.822Z,211
2016-09-15T16:23:52.445Z,361
2016-09-15T16:24:08.950Z,347
2016-09-15T16:24:25.325Z,344
2016-09-15T16:24:41.709Z,345
2016-09-15T16:24:58.310Z,346
2016-09-15T16:25:14.246Z,345
2016-09-15T16:25:30.994Z,345
2016-09-15T16:25:47.423Z,341
2016-09-15T16:26:03.809Z,345
2016-09-15T16:26:20.408Z,344
2016-09-15T16:26:36.805Z,344
2016-09-15T16:26:53.208Z,344
2016-09-15T16:27:09.828Z,343
2016-09-15T16:27:26.348Z,342
2016-09-15T16:27:43.108Z,342
2016-09-15T16:27:59.911Z,253
2016-09-15T16:28:16.288Z,296
2016-09-15T16:28:32.447Z,297
2016-09-15T16:28:49.442Z,296
2016-09-15T16:29:05.817Z,295
2016-09-15T16:29:22.194Z,295
2016-09-15T16:29:38.344Z,294
2016-09-15T16:29:54.959Z,293
2016-09-15T16:30:11.465Z,294
2016-09-15T16:30:28.078Z,293
2016-09-15T16:30:44.688Z,292
2016-09-15T16:31:01.285Z,292
2016-09-15T16:31:17.669Z,291
2016-09-15T16:31:34.043Z,289
2016-09-15T16:31:50.644Z,286
2016-09-15T16:32:06.597Z,289
2016-09-15T16:32:22.995Z,288
2016-09-15T16:32:39.373Z,287
2016-09-15T16:32:55.901Z,287
2016-09-15T16:33:12.040Z,287
2016-09-15T16:33:28.639Z,287
2016-09-15T16:33:45.139Z,286
2016-09-15T16:34:01.505Z,285
2016-09-15T16:34:17.895Z,286
2016-09-15T16:34:34.290Z,285
2016-09-15T16:34:50.670Z,284
2016-09-15T16:35:29.598Z,283
2016-09-15T16:35:46.210Z,283
2016-09-15T16:36:02.830Z,282
2016-09-15T16:36:19.424Z,280
2016-09-15T16:36:36.182Z,281
2016-09-15T16:36:52.615Z,280
2016-09-15T16:37:08.999Z,280
2016-09-15T16:37:25.651Z,279
2016-09-15T16:37:42.005Z,279
2016-09-15T16:37:58.392Z,278
2016-09-15T16:38:14.802Z,277
2016-09-15T16:38:31.174Z,277
2016-09-15T16:38:47.793Z,277
2016-09-15T16:39:04.397Z,277
2016-09-15T16:39:21.144Z,276
2016-09-15T16:39:37.296Z,275
2016-09-15T16:39:53.475Z,274
2016-09-15T16:40:10.014Z,274
2016-09-15T16:40:26.398Z,274
2016-09-15T16:40:43.326Z,273
2016-09-15T16:40:59.704Z,272
2016-09-15T16:41:16.098Z,271
2016-09-15T16:41:32.918Z,271
2016-09-15T16:41:49.189Z,270
2016-09-15T16:42:05.788Z,270
2016-09-15T16:42:22.398Z,269
2016-09-15T16:42:38.918Z,269
2016-09-15T16:42:55.527Z,268
2016-09-15T16:43:12.122Z,267
2016-09-15T16:43:28.500Z,267
2016-09-15T16:43:45.104Z,266
2016-09-15T16:44:01.497Z,266
2016-09-15T16:44:18.114Z,265
2016-09-15T16:44:34.520Z,264
2016-09-15T16:44:50.664Z,264
2016-09-15T16:45:07.100Z,263
2016-09-15T16:45:23.246Z,261
2016-09-15T16:45:39.846Z,262
2016-09-15T16:45:56.209Z,261
2016-09-15T16:46:12.823Z,261
2016-09-15T16:46:29.194Z,259
2016-09-15T16:46:45.557Z,259
2016-09-15T16:47:02.323Z,258
2016-09-15T16:47:18.729Z,258
2016-09-15T16:47:35.105Z,257
2016-09-15T16:47:51.538Z,256
2016-09-15T16:48:08.122Z,256
2016-09-15T16:48:24.490Z,255
2016-09-15T16:48:40.895Z,254
2016-09-15T16:48:57.511Z,254
2016-09-15T16:49:13.655Z,253
2016-09-15T16:49:30.410Z,252
2016-09-15T16:49:47.039Z,251
2016-09-15T16:50:03.195Z,251
2016-09-15T16:50:19.818Z,250
2016-09-15T16:50:36.205Z,249
2016-09-15T16:50:52.572Z,248
2016-09-15T16:51:08.969Z,247
2016-09-15T16:51:25.593Z,247
2016-09-15T16:51:42.189Z,246
2016-09-15T16:51:58.099Z,245
2016-09-15T16:52:14.510Z,244
2016-09-15T16:52:30.895Z,243
2016-09-15T16:52:47.494Z,243
2016-09-15T16:53:04.010Z,242
2016-09-15T16:53:20.616Z,241
2016-09-15T16:53:37.212Z,241
2016-09-15T16:53:53.848Z,239
2016-09-15T16:54:10.268Z,239
2016-09-15T16:54:26.770Z,238
2016-09-15T16:54:43.271Z,237
2016-09-15T16:54:59.674Z,236
2016-09-15T16:55:16.080Z,236
2016-09-15T16:55:32.682Z,235
2016-09-15T16:55:49.049Z,234
2016-09-15T16:56:05.444Z,233
2016-09-15T16:56:21.810Z,232
2016-09-15T16:56:37.950Z,231
2016-09-15T16:56:54.329Z,231
2016-09-15T16:57:10.941Z,230
2016-09-15T16:57:27.324Z,228
2016-09-15T16:57:43.703Z,228
2016-09-15T16:58:00.066Z,227
2016-09-15T16:58:16.661Z,226
2016-09-15T16:58:33.269Z,225
2016-09-15T16:58:50.007Z,224
2016-09-15T16:59:06.616Z,223
2016-09-15T16:59:22.785Z,222
2016-09-15T16:59:38.927Z,222
2016-09-15T16:59:55.663Z,221
2016-09-15T17:00:12.458Z,220
2016-09-15T17:00:29.044Z,219
2016-09-15T17:00:45.427Z,218
2016-09-15T17:01:02.036Z,216
2016-09-15T17:01:18.635Z,216
2016-09-15T17:01:35.242Z,215
2016-09-15T17:01:51.754Z,214
2016-09-15T17:02:07.897Z,213
2016-09-15T17:02:24.505Z,211
2016-09-15T17:02:41.105Z,210
2016-09-15T17:02:57.741Z,209
2016-09-15T17:03:14.249Z,208
2016-09-15T17:03:30.630Z,207
2016-09-15T17:03:47.250Z,206
2016-09-15T17:04:03.644Z,205
2016-09-15T17:04:20.214Z,203
2016-09-15T17:04:36.612Z,203
2016-09-15T17:04:52.974Z,202
2016-09-15T17:05:09.587Z,201
2016-09-15T17:05:26.210Z,200
2016-09-15T17:05:42.579Z,199
2016-09-15T17:05:58.952Z,197
2016-09-15T17:06:15.565Z,196
2016-09-15T17:06:31.947Z,195
2016-09-15T17:06:48.545Z,193
2016-09-15T17:07:05.151Z,192
2016-09-15T17:07:21.666Z,191
2016-09-15T17:07:38.282Z,190
2016-09-15T17:07:54.893Z,189
2016-09-15T17:08:11.264Z,188
2016-09-15T17:08:27.644Z,187
2016-09-15T17:08:44.249Z,186
2016-09-15T17:09:00.399Z,184
2016-09-15T17:09:17.032Z,183
2016-09-15T17:09:33.643Z,181
2016-09-15T17:09:50.019Z,180
2016-09-15T17:10:06.391Z,178
2016-09-15T17:10:45.857Z,175
2016-09-15T17:11:02.247Z,174
2016-09-15T17:11:18.837Z,173
2016-09-15T17:11:35.245Z,171
2016-09-15T17:11:52.049Z,170
2016-09-15T17:12:08.428Z,168
2016-09-15T17:12:46.054Z,166
2016-09-15T17:13:02.806Z,164
2016-09-15T17:13:18.974Z,163
2016-09-15T17:13:35.564Z,161
2016-09-15T17:13:52.193Z,160
2016-09-15T17:14:08.589Z,158
2016-09-15T17:14:50.025Z,155
2016-09-15T17:15:06.412Z,153
2016-09-15T17:15:23.032Z,152
2016-09-15T17:15:39.404Z,151
2016-09-15T17:15:55.784Z,149
2016-09-15T17:16:12.394Z,148
2016-09-15T17:16:29.212Z,146
2016-09-15T17:16:45.604Z,144
2016-09-15T17:17:01.904Z,143
2016-09-15T17:17:18.334Z,141
2016-09-15T17:17:34.667Z,140
2016-09-15T17:17:51.640Z,139
2016-09-15T17:18:08.512Z,137
2016-09-15T17:18:25.115Z,135
2016-09-15T17:18:41.647Z,134
2016-09-15T17:18:58.607Z,132
2016-09-15T17:19:14.538Z,130
2016-09-15T17:19:31.704Z,129
2016-09-15T17:20:12.450Z,125
2016-09-15T17:20:29.302Z,123
2016-09-15T17:20:45.903Z,122
2016-09-15T17:21:02.265Z,120
2016-09-15T17:21:18.431Z,118
2016-09-15T17:21:35.027Z,116
2016-09-15T17:21:51.860Z,115
2016-09-15T17:22:08.014Z,113
2016-09-15T17:22:24.620Z,111
2016-09-15T17:22:40.770Z,109
2016-09-15T17:22:57.148Z,108
2016-09-15T17:23:13.777Z,106
2016-09-15T17:23:29.927Z,104
2016-09-15T17:23:46.319Z,103
2016-09-15T17:24:02.661Z,101
2016-09-15T17:24:19.416Z,100
2016-09-15T17:24:35.800Z,98
2016-09-15T17:24:52.538Z,97
2016-09-15T17:25:09.175Z,95
2016-09-15T17:25:25.569Z,93
2016-09-15T17:25:41.712Z,92
2016-09-15T17:25:58.337Z,90
2016-09-15T17:26:14.938Z,89
2016-09-15T17:26:31.313Z,87
2016-09-15T17:26:47.921Z,86
2016-09-15T17:27:04.324Z,84
2016-09-15T17:27:21.293Z,82
2016-09-15T17:27:37.893Z,81
2016-09-15T17:27:54.638Z,79
2016-09-15T17:28:11.010Z,78
2016-09-15T17:28:27.389Z,76
2016-09-15T17:28:43.771Z,74
2016-09-15T17:29:00.351Z,73
2016-09-15T17:29:16.268Z,71
2016-09-15T17:29:33.094Z,70
2016-09-15T17:29:49.877Z,68
2016-09-15T17:30:06.656Z,67
2016-09-15T17:30:23.023Z,65
2016-09-15T17:30:39.388Z,64
2016-09-15T17:30:56.263Z,62
2016-09-15T17:31:12.653Z,60
2016-09-15T17:31:29.393Z,59
2016-09-15T17:31:45.768Z,58
2016-09-15T17:32:02.173Z,56
2016-09-15T17:32:18.925Z,55
2016-09-15T17:32:35.544Z,53
2016-09-15T17:33:15.894Z,50
2016-09-15T17:33:32.698Z,48
2016-09-15T17:33:49.292Z,47
2016-09-15T17:34:05.898Z,45
2016-09-15T17:34:22.645Z,44
2016-09-15T17:34:39.247Z,43
2016-09-15T17:34:55.625Z,42
2016-09-15T17:35:12.435Z,40
2016-09-15T17:35:28.765Z,39
2016-09-15T17:35:45.378Z,38
2016-09-15T17:36:02.020Z,37
2016-09-15T17:36:18.372Z,35
2016-09-15T17:36:34.929Z,34
2016-09-15T17:36:51.183Z,33
2016-09-15T17:37:07.797Z,32
2016-09-15T17:37:24.399Z,31
2016-09-15T17:37:41.024Z,30
2016-09-15T17:37:57.413Z,29
2016-09-15T17:38:14.031Z,28
2016-09-15T17:38:30.188Z,27
2016-09-15T17:38:46.351Z,26
2016-09-15T17:39:02.965Z,25
2016-09-15T17:39:19.328Z,24
2016-09-15T17:39:35.934Z,23
2016-09-15T17:39:52.085Z,22
2016-09-15T17:40:08.624Z,21
2016-09-15T17:40:24.975Z,20
2016-09-15T17:40:41.350Z,19
2016-09-15T17:40:57.954Z,18
2016-09-15T17:41:14.553Z,18
2016-09-15T17:41:30.938Z,17
2016-09-15T17:41:47.314Z,16
2016-09-15T17:42:03.919Z,15
2016-09-15T17:42:20.525Z,15
2016-09-15T17:42:37.126Z,14
2016-09-15T17:42:53.536Z,13
2016-09-15T17:43:32.519Z,12
2016-09-15T17:43:48.679Z,11
2016-09-15T17:44:05.285Z,11
2016-09-15T17:44:21.888Z,10
2016-09-15T17:44:38.291Z,10
2016-09-15T17:44:54.913Z,9
2016-09-15T17:45:11.056Z,9
2016-09-15T17:45:27.433Z,8
2016-09-15T17:45:44.499Z,8
2016-09-15T17:46:01.488Z,7
2016-09-15T17:46:39.125Z,6
2016-09-15T17:46:56.581Z,6
2016-09-15T17:47:12.945Z,5
2016-09-15T17:47:29.319Z,5
2016-09-15T17:47:45.944Z,5
2016-09-15T17:48:02.708Z,4
2016-09-15T17:48:41.948Z,3
2016-09-15T17:48:58.334Z,3
2016-09-15T17:49:15.115Z,3
2016-09-15T17:49:31.851Z,3
2016-09-15T17:49:48.491Z,3
2016-09-15T17:50:05.088Z,2
2016-09-15T17:50:21.693Z,2
2016-09-15T17:50:38.068Z,2
2016-09-15T17:50:54.464Z,2
2016-09-15T17:51:11.066Z,1
2016-09-15T17:51:27.585Z,1
2016-09-15T17:51:43.723Z,1
2016-09-15T17:52:00.356Z,1
2016-09-15T17:52:16.944Z,1
2016-09-15T17:52:33.563Z,0
2016-09-15T17:52:50.302Z,0
2016-09-15T17:53:06.932Z,0
2016-09-15T17:53:23.558Z,0
2016-09-15T17:53:40.179Z,0
2016-09-15T17:53:56.792Z,0
2016-09-15T17:54:13.280Z,0
2016-09-15T17:54:29.696Z,0
2016-09-15T17:54:46.300Z,0
2016-09-15T17:55:02.899Z,0
2016-09-15T17:55:19.726Z,0
2016-09-15T17:55:36.116Z,0
2016-09-15T17:55:53.021Z,0
2016-09-15T17:56:09.167Z,0
2016-09-15T17:56:25.477Z,0
2016-09-15T17:56:42.024Z,0
2016-09-15T17:56:58.396Z,0
2016-09-15T17:57:15.162Z,0
2016-09-15T17:57:31.518Z,0
2016-09-15T17:57:48.259Z,0
2016-09-15T17:58:04.867Z,0
2016-09-15T17:58:21.253Z,0
2016-09-15T17:58:37.856Z,0
2016-09-15T17:58:54.464Z,0
2016-09-15T17:59:11.216Z,0
2016-09-15T17:59:27.659Z,0
2016-09-15T17:59:44.031Z,0
2016-09-15T18:00:00.609Z,0
2016-09-15T18:00:17.199Z,0
2016-09-15T18:00:33.816Z,0
2016-09-15T18:00:50.429Z,0
2016-09-15T18:01:07.051Z,0
2016-09-15T18:01:23.422Z,0
2016-09-15T18:01:39.778Z,0
2016-09-15T18:01:56.150Z,0
2016-09-15T18:02:12.765Z,0
2016-09-15T18:02:29.278Z,0
2016-09-15T18:02:46.105Z,0
2016-09-15T18:03:02.389Z,0
2016-09-15T18:03:18.988Z,0
2016-09-15T18:03:35.605Z,0
2016-09-15T18:03:51.759Z,0
2016-09-15T18:04:08.144Z,0
2016-09-15T18:04:24.527Z,0
2016-09-15T18:04:40.913Z,0
2016-09-15T18:04:57.516Z,0
2016-09-15T18:05:13.880Z,0
2016-09-15T18:05:30.534Z,0
2016-09-15T18:05:47.155Z,0
2016-09-15T18:06:03.538Z,0
2016-09-15T18:06:20.136Z,0
2016-09-15T18:06:36.525Z,0
2016-09-15T18:06:53.140Z,0
2016-09-15T18:07:09.897Z,0
2016-09-15T18:07:26.282Z,0
2016-09-15T18:07:42.428Z,0
2016-09-15T18:07:59.029Z,0
2016-09-15T18:08:15.636Z,0
2016-09-15T18:08:32.237Z,0
2016-09-15T18:08:48.833Z,0
2016-09-15T18:09:05.201Z,0
2016-09-15T18:09:21.624Z,0
2016-09-15T18:09:37.768Z,0
2016-09-15T18:09:53.896Z,0
2016-09-15T18:10:10.507Z,0
2016-09-15T18:10:27.127Z,0
2016-09-15T18:10:43.502Z,0
2016-09-15T18:11:00.106Z,0
